Time;durP1;ratioP1;P1;durP2;ratioP2;P2;SDS_P1;SDS_P2;PMS_P1;PMS_P2;Temp;Humidity;BMP_temperature;BMP_pressure;BME280_temperature;BME280_humidity;BME280_pressure;Samples;Min_cycle;Max_cycle;Signal;HPM_P1;HPM_P2
2021/12/17 00:00:45;;;;;;;3.63;2.70;;;18.40;59.70;;;;;;5000138;28;20037;-55
2021/12/17 00:03:18;;;;;;;2.95;2.38;;;18.40;59.70;;;;;;5001660;28;20172;-54
2021/12/17 00:05:51;;;;;;;3.80;2.05;;;18.40;59.60;;;;;;5000354;28;20196;-57
2021/12/17 00:08:18;;;;;;;3.80;2.10;;;18.30;59.50;;;;;;4999155;28;20489;-51
2021/12/17 00:10:43;;;;;;;4.78;2.30;;;18.30;59.50;;;;;;5000852;28;20102;-55
2021/12/17 00:13:09;;;;;;;3.97;2.45;;;18.30;59.50;;;;;;4984820;28;20038;-52
2021/12/17 00:15:35;;;;;;;3.15;2.58;;;18.30;59.40;;;;;;5000779;28;20436;-54
2021/12/17 00:18:09;;;;;;;2.83;2.40;;;18.40;59.50;;;;;;5001486;28;20517;-53
2021/12/17 00:53:17;;;;;;;3.53;2.28;;;18.30;58.90;;;;;;5004223;28;20030;-54
2021/12/17 00:55:42;;;;;;;2.90;2.40;;;18.30;58.90;;;;;;5004109;28;20053;-54
2021/12/17 00:58:08;;;;;;;2.85;2.20;;;18.30;58.80;;;;;;5005406;28;20574;-56
2021/12/17 01:00:33;;;;;;;2.30;2.10;;;18.30;58.80;;;;;;5003452;28;20116;-55
2021/12/17 01:02:59;;;;;;;2.75;2.08;;;18.30;58.80;;;;;;5004804;28;20040;-56
2021/12/17 01:05:26;;;;;;;2.33;2.13;;;18.30;58.80;;;;;;5004040;28;20138;-56
2021/12/17 01:07:52;;;;;;;3.33;2.20;;;18.30;58.80;;;;;;5004030;28;20034;-55
2021/12/17 01:10:22;;;;;;;3.25;2.13;;;18.30;58.80;;;;;;5002669;28;20058;-54
2021/12/17 01:12:47;;;;;;;2.83;2.10;;;18.30;58.70;;;;;;5004827;28;20509;-52
2021/12/17 01:15:14;;;;;;;2.90;2.60;;;18.30;58.70;;;;;;5005232;28;20030;-56
2021/12/17 01:17:42;;;;;;;3.50;2.50;;;18.30;58.60;;;;;;5005214;28;20045;-56
2021/12/17 01:20:22;;;;;;;2.45;2.00;;;18.30;58.60;;;;;;5004713;28;20045;-53
2021/12/17 01:25:39;;;;;;;3.20;2.67;;;18.30;58.60;;;;;;5004592;28;20130;-54
2021/12/17 01:36:12;;;;;;;2.53;2.30;;;18.30;58.60;;;;;;5002620;28;20040;-54
2021/12/17 01:43:53;;;;;;;4.18;2.42;;;18.30;58.50;;;;;;5004764;28;20404;-52
2021/12/17 01:46:27;;;;;;;2.97;2.38;;;18.30;58.50;;;;;;5003965;28;20041;-55
2021/12/17 02:00:15;;;;;;;2.53;2.33;;;18.30;58.40;;;;;;5003159;28;20034;-55
2021/12/17 02:02:45;;;;;;;3.17;2.35;;;18.20;58.30;;;;;;5002565;28;20108;-56
2021/12/17 02:05:12;;;;;;;3.03;2.67;;;18.30;58.30;;;;;;5000158;28;20034;-54
2021/12/17 02:07:38;;;;;;;3.78;2.55;;;18.30;58.30;;;;;;5004214;28;20038;-54
2021/12/17 02:31:43;;;;;;;2.90;2.55;;;18.20;58.30;;;;;;4978895;28;20038;-54
2021/12/17 02:36:58;;;;;;;3.35;2.40;;;18.10;58.40;;;;;;5002340;28;20061;-53
2021/12/17 02:47:23;;;;;;;2.90;2.63;;;18.10;58.30;;;;;;5002570;28;20041;-56
2021/12/17 02:49:49;;;;;;;3.28;2.60;;;18.10;58.30;;;;;;5002645;28;20030;-57
2021/12/17 02:52:15;;;;;;;5.55;2.60;;;18.10;58.30;;;;;;5003380;28;20022;-56
2021/12/17 02:54:40;;;;;;;2.63;2.42;;;18.00;58.30;;;;;;5003128;28;20513;-54
2021/12/17 02:57:07;;;;;;;3.50;2.45;;;18.10;58.40;;;;;;5001371;28;20034;-55
2021/12/17 02:59:33;;;;;;;2.78;2.45;;;18.00;58.30;;;;;;5001266;28;20065;-57
2021/12/17 03:01:59;;;;;;;3.00;2.70;;;18.10;58.30;;;;;;5002230;28;20137;-51
2021/12/17 03:04:25;;;;;;;4.93;3.15;;;18.10;58.30;;;;;;5002990;28;20120;-54
2021/12/17 03:06:51;;;;;;;2.50;2.30;;;18.10;58.30;;;;;;5001924;28;20088;-52
2021/12/17 03:09:21;;;;;;;3.22;2.38;;;18.10;58.30;;;;;;5001270;28;20065;-54
2021/12/17 03:11:46;;;;;;;2.67;2.42;;;18.00;58.20;;;;;;5002461;28;20026;-52
2021/12/17 03:14:12;;;;;;;3.40;2.90;;;18.00;58.20;;;;;;5002823;28;20030;-52
2021/12/17 03:16:52;;;;;;;3.60;2.90;;;18.10;58.30;;;;;;5002882;28;20293;-54
2021/12/17 03:24:47;;;;;;;3.10;2.80;;;18.00;58.20;;;;;;5002576;28;20099;-51
2021/12/17 03:27:12;;;;;;;3.15;2.85;;;18.00;58.10;;;;;;5001947;28;20509;-56
2021/12/17 03:29:38;;;;;;;2.75;2.55;;;18.00;58.10;;;;;;5002410;28;20034;-52
2021/12/17 03:32:04;;;;;;;3.17;2.88;;;18.00;58.70;;;;;;5001157;28;20037;-52
2021/12/17 03:34:30;;;;;;;2.92;2.63;;;18.00;58.10;;;;;;5002681;28;20038;-53
2021/12/17 03:36:57;;;;;;;4.13;2.97;;;18.00;58.00;;;;;;5001710;28;20022;-56
2021/12/17 03:39:26;;;;;;;4.20;2.88;;;18.00;58.00;;;;;;5002499;28;20026;-54
2021/12/17 03:41:52;;;;;;;4.03;2.90;;;18.00;58.00;;;;;;5002826;28;20034;-56
2021/12/17 03:44:18;;;;;;;3.38;2.65;;;18.00;58.00;;;;;;5000506;28;20030;-56
2021/12/17 03:46:46;;;;;;;3.72;2.78;;;18.00;58.00;;;;;;5001067;28;20038;-54
2021/12/17 03:49:11;;;;;;;4.43;3.10;;;18.00;58.00;;;;;;5001359;28;20032;-55
2021/12/17 03:51:47;;;;;;;3.03;2.72;;;18.00;58.00;;;;;;5000956;28;20150;-56
2021/12/17 03:54:13;;;;;;;3.67;3.30;;;18.00;58.00;;;;;;5000094;28;20036;-54
2021/12/17 03:56:38;;;;;;;3.25;2.88;;;18.00;58.00;;;;;;5001087;28;20033;-52
2021/12/17 03:59:10;;;;;;;3.67;2.58;;;18.00;58.00;;;;;;5028949;23;20163;-61
2021/12/17 04:01:36;;;;;;;3.00;2.72;;;18.00;58.00;;;;;;5021764;28;20847;-62
2021/12/17 04:04:01;;;;;;;2.70;2.42;;;18.00;58.00;;;;;;5025662;28;20044;-62
2021/12/17 04:06:27;;;;;;;4.18;3.03;;;18.00;58.00;;;;;;5025046;28;20100;-62
2021/12/17 04:08:54;;;;;;;4.57;3.33;;;18.00;57.90;;;;;;5013287;28;20026;-61
2021/12/17 04:11:20;;;;;;;3.88;3.10;;;18.00;58.00;;;;;;4997293;28;20299;-62
2021/12/17 04:13:52;;;;;;;3.75;3.25;;;18.00;57.90;;;;;;5005857;28;20561;-62
2021/12/17 04:16:22;;;;;;;3.20;2.90;;;18.00;57.90;;;;;;5005402;28;20080;-60
2021/12/17 04:18:48;;;;;;;3.38;2.60;;;18.00;57.90;;;;;;5005083;28;20080;-61
2021/12/17 04:21:13;;;;;;;2.90;2.70;;;18.00;57.80;;;;;;5005293;28;20037;-61
2021/12/17 04:23:42;;;;;;;3.03;2.72;;;18.00;57.90;;;;;;5005908;28;20502;-63
2021/12/17 04:26:08;;;;;;;4.20;2.90;;;18.00;57.80;;;;;;5004268;28;20037;-61
2021/12/17 04:28:36;;;;;;;3.75;3.22;;;18.00;57.80;;;;;;5005315;28;20022;-62
2021/12/17 04:31:02;;;;;;;3.30;3.00;;;18.00;57.80;;;;;;5005037;28;20018;-60
2021/12/17 04:33:27;;;;;;;3.47;3.05;;;18.00;57.80;;;;;;5005188;28;20014;-62
2021/12/17 04:35:53;;;;;;;5.60;2.67;;;18.00;57.80;;;;;;5005236;28;20453;-62
2021/12/17 04:38:20;;;;;;;3.10;2.80;;;18.00;57.80;;;;;;5004734;28;20041;-62
2021/12/17 04:40:48;;;;;;;3.38;2.83;;;18.00;57.80;;;;;;5004975;28;20026;-62
2021/12/17 04:43:19;;;;;;;3.28;2.97;;;18.00;57.80;;;;;;5005353;28;20018;-62
2021/12/17 04:45:56;;;;;;;3.42;3.13;;;18.00;57.70;;;;;;5001040;28;20092;-62
2021/12/17 04:59:17;;;;;;;3.08;2.78;;;18.00;57.60;;;;;;5004464;28;20126;-62
2021/12/17 05:01:43;;;;;;;3.80;2.72;;;18.00;57.50;;;;;;5004956;28;20105;-61
2021/12/17 05:04:08;;;;;;;3.30;3.00;;;18.00;57.50;;;;;;5004922;28;20032;-61
2021/12/17 05:06:34;;;;;;;2.88;2.65;;;18.00;57.50;;;;;;5005405;28;20022;-63
2021/12/17 05:09:08;;;;;;;3.97;3.50;;;18.00;57.50;;;;;;5004877;28;20026;-62
2021/12/17 05:18:14;;;;;;;3.65;2.95;;;18.00;57.50;;;;;;5004956;28;20026;-61
2021/12/17 05:19:47;;;;;;;3.17;2.88;;;18.00;57.30;;;;;;5008110;28;20084;-61
2021/12/17 05:22:13;;;;;;;3.30;3.00;;;18.00;57.30;;;;;;5007926;28;20483;-58
2021/12/17 05:24:39;;;;;;;4.28;3.10;;;18.00;57.30;;;;;;5009130;28;20026;-61
2021/12/17 05:27:04;;;;;;;3.30;2.97;;;18.00;57.30;;;;;;5009845;28;20030;-61
2021/12/17 05:29:30;;;;;;;3.05;2.72;;;18.00;57.30;;;;;;5008495;28;20612;-61
2021/12/17 05:31:55;;;;;;;3.95;3.10;;;18.00;57.30;;;;;;5008270;28;20018;-60
2021/12/17 05:34:21;;;;;;;2.70;2.50;;;18.00;57.30;;;;;;5008336;28;20026;-61
2021/12/17 05:36:46;;;;;;;3.42;3.00;;;18.00;57.30;;;;;;5008089;28;20034;-61
2021/12/17 05:39:12;;;;;;;3.13;2.83;;;18.00;57.20;;;;;;5007988;28;20037;-61
2021/12/17 05:41:37;;;;;;;3.38;3.08;;;18.00;57.30;;;;;;5007718;28;20033;-61
2021/12/17 05:44:03;;;;;;;3.33;3.03;;;18.00;57.20;;;;;;5007843;28;20030;-62
2021/12/17 05:49:24;;;;;;;3.63;3.33;;;18.00;57.20;;;;;;5000813;28;20458;-62
2021/12/17 05:51:50;;;;;;;5.05;2.90;;;18.00;57.20;;;;;;5007806;28;20390;-62
2021/12/17 05:54:16;;;;;;;3.75;3.35;;;18.00;57.20;;;;;;5008206;28;20026;-64
2021/12/17 05:56:41;;;;;;;3.20;2.90;;;18.00;57.20;;;;;;5007995;28;20556;-64
2021/12/17 05:59:07;;;;;;;4.55;3.50;;;18.00;57.20;;;;;;5007388;28;20078;-66
2021/12/17 06:01:32;;;;;;;5.68;2.95;;;18.00;57.40;;;;;;5007837;28;20562;-63
2021/12/17 06:03:58;;;;;;;3.47;3.17;;;18.00;57.30;;;;;;5007607;28;20555;-64
2021/12/17 06:06:37;;;;;;;3.60;3.25;;;18.10;57.40;;;;;;5007520;28;20479;-63
2021/12/17 06:09:05;;;;;;;3.45;3.03;;;18.00;57.20;;;;;;5006830;28;20083;-61
2021/12/17 06:11:32;;;;;;;3.63;3.15;;;18.00;57.20;;;;;;5007641;28;20018;-63
2021/12/17 06:13:57;;;;;;;3.72;3.35;;;18.00;57.20;;;;;;5007430;28;20030;-64
2021/12/17 06:16:23;;;;;;;6.65;4.10;;;18.00;57.30;;;;;;5007408;28;20113;-63
2021/12/17 06:18:48;;;;;;;3.78;3.03;;;18.10;57.50;;;;;;5006951;28;20441;-64
2021/12/17 06:21:14;;;;;;;4.10;3.38;;;18.00;57.40;;;;;;5007177;28;20034;-62
2021/12/17 06:23:40;;;;;;;5.35;3.42;;;18.00;57.40;;;;;;5007137;28;20394;-63
2021/12/17 06:26:06;;;;;;;5.32;3.47;;;18.00;57.40;;;;;;5006610;28;20034;-66
2021/12/17 06:28:31;;;;;;;4.13;3.63;;;18.00;57.40;;;;;;5006843;28;20022;-62
2021/12/17 06:30:56;;;;;;;3.83;3.53;;;18.00;57.30;;;;;;5007207;28;20453;-61
2021/12/17 06:33:22;;;;;;;3.97;3.40;;;18.00;57.30;;;;;;4998212;28;20062;-63
2021/12/17 06:35:47;;;;;;;3.63;3.10;;;18.00;57.30;;;;;;5007459;28;20038;-65
2021/12/17 06:38:13;;;;;;;4.40;3.30;;;18.00;57.40;;;;;;5007125;28;20022;-62
2021/12/17 06:40:38;;;;;;;4.18;3.45;;;18.00;57.40;;;;;;5006825;28;20045;-64
2021/12/17 06:43:04;;;;;;;5.75;3.00;;;18.00;57.40;;;;;;5006727;28;20026;-63
2021/12/17 06:45:50;;;;;;;4.63;3.25;;;18.00;57.40;;;;;;5007045;28;20347;-62
2021/12/17 06:48:20;;;;;;;5.65;3.45;;;18.00;57.40;;;;;;5006182;28;20514;-61
2021/12/17 07:05:57;;;;;;;4.77;3.97;;;18.00;59.40;;;;;;5006262;28;20041;-62
2021/12/17 07:10:05;;;;;;;5.25;4.00;;;18.00;59.50;;;;;;5005952;28;20033;-63
2021/12/17 07:20:59;;;;;;;5.47;4.13;;;17.90;58.90;;;;;;5005906;28;20079;-62
2021/12/17 07:23:37;;;;;;;6.40;4.88;;;17.90;58.80;;;;;;5005122;28;20030;-63
2021/12/17 07:28:09;;;;;;;6.03;4.40;;;17.90;58.60;;;;;;5002745;28;20022;-59
2021/12/17 07:30:19;;;;;;;9.13;5.28;;;17.90;58.60;;;;;;4999718;28;20049;-61
2021/12/17 07:32:18;;;;;;;12.00;8.65;;;17.90;58.50;;;;;;5005505;28;20025;-61
2021/12/17 07:39:46;;;;;;;19.88;11.05;;;18.00;58.50;;;;;;5005120;28;20025;-61
2021/12/17 07:42:11;;;;;;;26.80;12.05;;;18.00;58.30;;;;;;5006075;28;20486;-63
2021/12/17 07:44:37;;;;;;;29.98;15.40;;;18.00;58.00;;;;;;5005938;28;20100;-60
2021/12/17 07:47:02;;;;;;;31.00;14.60;;;18.00;58.40;;;;;;5005417;28;20026;-61
2021/12/17 07:49:28;;;;;;;33.03;15.98;;;18.00;58.90;;;;;;5005404;28;20390;-61
2021/12/17 07:51:53;;;;;;;33.33;14.52;;;18.00;58.80;;;;;;5005851;28;20073;-59
2021/12/17 07:54:19;;;;;;;28.80;15.25;;;18.00;59.00;;;;;;5006005;28;20029;-60
2021/12/17 07:56:45;;;;;;;31.05;15.25;;;18.00;59.10;;;;;;5005418;28;20025;-60
2021/12/17 07:59:11;;;;;;;28.83;14.40;;;18.00;59.10;;;;;;5005760;28;20544;-62
2021/12/17 08:01:37;;;;;;;27.05;13.75;;;18.00;59.20;;;;;;5006029;28;20489;-62
2021/12/17 08:04:03;;;;;;;24.60;13.63;;;18.00;59.10;;;;;;5006697;28;20036;-63
2021/12/17 08:06:29;;;;;;;22.23;12.25;;;18.00;59.10;;;;;;5006067;28;20156;-62
2021/12/17 08:08:54;;;;;;;18.80;10.75;;;18.00;59.30;;;;;;5006546;28;20026;-62
2021/12/17 08:11:22;;;;;;;21.70;11.45;;;18.00;59.40;;;;;;5007954;28;20580;-63
2021/12/17 08:13:47;;;;;;;21.77;10.30;;;18.00;59.40;;;;;;5010063;28;20014;-62
2021/12/17 08:31:48;;;;;;;25.92;10.65;;;18.10;59.90;;;;;;5010204;28;20657;-63
2021/12/17 08:34:13;;;;;;;17.73;9.27;;;18.10;59.90;;;;;;5017442;28;20076;-63
2021/12/17 08:36:39;;;;;;;21.65;9.73;;;18.20;59.70;;;;;;5007840;28;20045;-63
2021/12/17 08:39:04;;;;;;;22.48;9.80;;;18.20;59.60;;;;;;5000757;28;20027;-64
2021/12/17 08:41:30;;;;;;;23.67;10.82;;;18.20;59.50;;;;;;5009746;28;20192;-62
2021/12/17 08:43:55;;;;;;;22.17;9.65;;;18.20;59.30;;;;;;5013607;28;20120;-62
2021/12/17 08:46:21;;;;;;;18.50;9.57;;;18.30;59.30;;;;;;5005148;28;20048;-62
2021/12/17 08:48:46;;;;;;;23.02;10.05;;;18.20;59.20;;;;;;5007918;28;20026;-62
2021/12/17 08:51:12;;;;;;;19.83;8.85;;;18.20;59.10;;;;;;5009305;28;20054;-63
2021/12/17 08:53:37;;;;;;;19.67;9.60;;;18.30;59.10;;;;;;5009000;28;20034;-63
2021/12/17 08:56:04;;;;;;;18.52;8.77;;;18.30;59.00;;;;;;5008801;28;20530;-62
2021/12/17 08:58:29;;;;;;;27.83;9.43;;;18.30;58.90;;;;;;5006170;28;20416;-62
2021/12/17 09:00:55;;;;;;;18.90;9.20;;;18.30;58.80;;;;;;5008023;28;20026;-62
2021/12/17 09:03:20;;;;;;;21.67;8.65;;;18.30;58.60;;;;;;5008413;28;20068;-62
2021/12/17 09:05:48;;;;;;;17.85;8.63;;;18.30;58.50;;;;;;5008679;28;20022;-63
2021/12/17 09:08:13;;;;;;;18.58;8.50;;;18.30;58.50;;;;;;5008089;28;20367;-62
2021/12/17 09:10:39;;;;;;;15.70;8.13;;;18.30;58.40;;;;;;5007938;28;20072;-63
2021/12/17 09:13:05;;;;;;;16.85;8.00;;;18.30;58.20;;;;;;5004560;28;20014;-62
2021/12/17 09:15:30;;;;;;;24.58;9.43;;;18.30;58.20;;;;;;5010461;28;20071;-61
2021/12/17 09:17:56;;;;;;;20.00;8.05;;;18.30;58.00;;;;;;5007924;28;20054;-63
2021/12/17 09:20:22;;;;;;;16.13;8.32;;;18.30;58.00;;;;;;5007835;28;20411;-62
2021/12/17 09:22:47;;;;;;;15.93;8.57;;;18.30;57.90;;;;;;5008619;28;20030;-63
2021/12/17 09:25:14;;;;;;;18.33;8.55;;;18.30;57.80;;;;;;5007773;28;20065;-63
2021/12/17 09:27:40;;;;;;;19.73;8.75;;;18.30;57.80;;;;;;5007027;28;20038;-63
2021/12/17 09:30:07;;;;;;;18.00;8.20;;;18.30;57.80;;;;;;5005786;28;20022;-63
2021/12/17 09:32:33;;;;;;;17.77;8.32;;;18.30;57.80;;;;;;5016722;28;20028;-64
2021/12/17 09:34:58;;;;;;;14.80;7.93;;;18.30;57.70;;;;;;5001200;28;20498;-64
2021/12/17 09:37:24;;;;;;;14.30;8.15;;;18.30;57.80;;;;;;5006984;28;20034;-62
2021/12/17 09:39:49;;;;;;;19.80;8.85;;;18.30;57.80;;;;;;5008034;28;20036;-62
2021/12/17 09:42:15;;;;;;;16.67;8.48;;;18.30;57.80;;;;;;5008822;28;20030;-63
2021/12/17 09:44:41;;;;;;;18.00;8.25;;;18.30;57.80;;;;;;5014211;28;20025;-61
2021/12/17 09:47:07;;;;;;;14.80;8.18;;;18.30;57.80;;;;;;5007725;28;20058;-63
2021/12/17 09:49:32;;;;;;;20.70;9.23;;;18.20;57.80;;;;;;5007940;28;20028;-62
2021/12/17 09:51:59;;;;;;;16.05;7.40;;;18.20;57.80;;;;;;5004581;28;20026;-61
2021/12/17 09:54:25;;;;;;;13.48;7.70;;;18.20;57.90;;;;;;5007384;28;20021;-61
2021/12/17 09:56:50;;;;;;;14.85;7.47;;;18.20;57.90;;;;;;5007407;28;20033;-61
2021/12/17 09:59:16;;;;;;;16.58;7.55;;;18.20;58.00;;;;;;5005776;28;20715;-52
2021/12/17 10:01:42;;;;;;;17.30;8.00;;;18.20;58.10;;;;;;5007500;28;20030;-62
2021/12/17 10:04:18;;;;;;;15.30;7.75;;;18.20;58.30;;;;;;5007314;28;20025;-61
2021/12/17 10:06:44;;;;;;;10.38;6.80;;;18.20;58.40;;;;;;5033127;23;20049;-72
2021/12/17 10:09:10;;;;;;;13.55;7.30;;;18.20;58.40;;;;;;5002630;28;20029;-72
2021/12/17 10:11:35;;;;;;;13.93;6.78;;;18.20;58.40;;;;;;4997308;28;20129;-71
2021/12/17 10:14:17;;;;;;;13.38;6.85;;;18.20;58.50;;;;;;4986247;28;20023;-71
2021/12/17 10:16:43;;;;;;;12.35;6.60;;;18.20;58.60;;;;;;4983784;28;20517;-71
2021/12/17 10:19:09;;;;;;;12.23;6.80;;;18.20;58.70;;;;;;4983217;28;20030;-72
2021/12/17 10:21:38;;;;;;;11.20;5.85;;;18.20;58.60;;;;;;4983285;28;20026;-72
2021/12/17 10:24:04;;;;;;;11.07;6.65;;;18.20;58.70;;;;;;4983542;28;20073;-73
2021/12/17 10:26:40;;;;;;;9.30;5.85;;;18.10;58.60;;;;;;4968339;28;20116;-72
2021/12/17 10:29:06;;;;;;;10.70;5.60;;;18.20;58.60;;;;;;4967517;28;20033;-71
2021/12/17 10:31:35;;;;;;;13.02;6.22;;;18.20;58.50;;;;;;4983409;28;20401;-71
2021/12/17 10:34:01;;;;;;;13.52;6.38;;;18.20;58.50;;;;;;4984625;28;20088;-72
2021/12/17 10:36:34;;;;;;;9.27;6.03;;;18.20;58.40;;;;;;4984073;28;20035;-72
2021/12/17 10:39:02;;;;;;;14.25;6.30;;;18.20;58.40;;;;;;4966424;28;20138;-71
2021/12/17 10:41:28;;;;;;;9.13;6.38;;;18.20;58.30;;;;;;4982865;28;20027;-70
2021/12/17 10:43:59;;;;;;;9.77;6.05;;;18.20;58.20;;;;;;4985246;28;20049;-71
2021/12/17 10:46:28;;;;;;;13.75;6.72;;;18.20;58.10;;;;;;4976209;28;20096;-72
2021/12/17 10:51:56;;;;;;;7.53;6.03;;;18.20;58.00;;;;;;4964796;28;20061;-72
2021/12/17 10:54:22;;;;;;;7.78;5.93;;;18.30;58.00;;;;;;4983968;28;20054;-71
2021/12/17 10:56:54;;;;;;;10.70;6.28;;;18.30;58.00;;;;;;4984863;28;20057;-71
2021/12/17 10:59:19;;;;;;;8.70;5.95;;;18.30;57.90;;;;;;4983219;28;20085;-72
2021/12/17 11:01:48;;;;;;;8.88;6.30;;;18.30;57.80;;;;;;4984730;28;20034;-72
2021/12/17 11:04:13;;;;;;;7.40;5.68;;;18.30;57.70;;;;;;4967621;28;20038;-72
2021/12/17 11:06:42;;;;;;;8.82;5.93;;;18.30;57.70;;;;;;4984490;28;20038;-71
2021/12/17 11:09:07;;;;;;;7.95;6.35;;;18.30;57.70;;;;;;4983068;28;20448;-71
2021/12/17 11:11:40;;;;;;;9.25;6.28;;;18.30;57.60;;;;;;4984264;28;20126;-71
2021/12/17 11:14:06;;;;;;;6.47;5.43;;;18.20;57.60;;;;;;4984433;28;20070;-72
2021/12/17 11:16:31;;;;;;;8.15;6.10;;;18.20;57.60;;;;;;4984565;28;20670;-72
2021/12/17 11:18:57;;;;;;;9.00;6.28;;;18.20;57.70;;;;;;4982999;28;20049;-72
2021/12/17 11:21:23;;;;;;;26.25;14.25;;;18.20;57.80;;;;;;4984492;28;20393;-73
2021/12/17 11:23:48;;;;;;;70.30;40.47;;;18.20;58.50;;;;;;4983058;28;20688;-72
2021/12/17 11:26:14;;;;;;;82.22;48.55;;;18.20;59.20;;;;;;4967337;28;20030;-73
2021/12/17 11:28:39;;;;;;;79.85;48.60;;;18.20;59.90;;;;;;4964152;28;20522;-71
2021/12/17 11:31:05;;;;;;;80.63;45.55;;;18.20;60.30;;;;;;4963464;28;20027;-72
2021/12/17 11:33:31;;;;;;;72.32;39.78;;;18.20;60.20;;;;;;4982692;28;20030;-71
2021/12/17 11:35:56;;;;;;;74.82;39.22;;;18.10;60.40;;;;;;4966616;28;20038;-72
2021/12/17 11:38:33;;;;;;;53.55;28.73;;;18.10;60.30;;;;;;4982725;28;20030;-73
2021/12/17 11:41:23;;;;;;;43.83;24.63;;;18.10;59.90;;;;;;4982784;28;20049;-73
2021/12/17 11:43:57;;;;;;;36.38;21.95;;;18.10;59.80;;;;;;4967432;28;20038;-72
2021/12/17 11:46:25;;;;;;;35.40;19.90;;;18.10;59.70;;;;;;4982983;28;20042;-73
2021/12/17 11:48:59;;;;;;;33.53;19.52;;;18.10;59.60;;;;;;4965139;28;20269;-73
2021/12/17 11:51:32;;;;;;;32.45;17.17;;;18.00;59.50;;;;;;4982207;28;20092;-71
2021/12/17 11:54:05;;;;;;;29.42;16.85;;;18.00;59.50;;;;;;4963622;28;20018;-71
2021/12/17 11:56:39;;;;;;;23.58;14.57;;;18.00;59.50;;;;;;4982354;28;20038;-70
2021/12/17 11:59:04;;;;;;;21.65;13.55;;;18.00;59.40;;;;;;4984204;28;20034;-71
2021/12/17 12:01:49;;;;;;;22.27;13.20;;;18.00;59.20;;;;;;4983342;28;20042;-70
2021/12/17 12:04:33;;;;;;;27.50;12.73;;;18.10;59.10;;;;;;4979502;28;20031;-70
2021/12/17 12:07:02;;;;;;;20.85;12.10;;;18.00;58.80;;;;;;4979006;28;20081;-71
2021/12/17 12:09:59;;;;;;;21.90;11.75;;;18.00;58.80;;;;;;4982930;28;20031;-70
2021/12/17 12:12:27;;;;;;;;;;;18.00;58.70;;;;;;4981820;28;20089;-70
2021/12/17 12:14:52;;;;;;;14.57;9.88;;;18.10;58.70;;;;;;4984309;28;19916;-71
2021/12/17 12:17:55;;;;;;;15.15;9.48;;;18.00;58.60;;;;;;4982182;28;20117;-71
2021/12/17 12:20:46;;;;;;;17.25;9.63;;;18.00;58.60;;;;;;4981093;28;20438;-73
2021/12/17 12:23:15;;;;;;;17.75;9.75;;;18.10;58.70;;;;;;4984656;28;20034;-70
2021/12/17 12:25:40;;;;;;;14.45;9.57;;;18.00;58.60;;;;;;4987744;28;20119;-70
2021/12/17 12:28:06;;;;;;;13.70;9.20;;;18.00;58.60;;;;;;4985595;28;20509;-70
2021/12/17 12:30:39;;;;;;;14.52;8.07;;;18.00;58.60;;;;;;4954019;28;20034;-72
2021/12/17 12:33:05;;;;;;;16.77;9.07;;;18.10;58.70;;;;;;4986474;28;20027;-70
2021/12/17 12:35:31;;;;;;;14.48;8.25;;;18.10;58.60;;;;;;4986039;28;20061;-70
2021/12/17 12:38:13;;;;;;;14.82;8.05;;;18.10;58.50;;;;;;4986026;28;20035;-71
2021/12/17 12:40:44;;;;;;;13.82;8.57;;;18.10;58.50;;;;;;4983783;28;20030;-70
2021/12/17 12:43:27;;;;;;;14.25;8.18;;;18.10;58.50;;;;;;4983735;28;20042;-71
2021/12/17 12:45:53;;;;;;;11.82;7.72;;;18.10;58.50;;;;;;4968440;28;20569;-73
2021/12/17 12:48:32;;;;;;;15.30;7.93;;;18.10;58.40;;;;;;4986353;28;20104;-72
2021/12/17 12:51:17;;;;;;;13.50;7.28;;;18.10;58.50;;;;;;4984421;28;20066;-70
2021/12/17 12:54:12;;;;;;;16.48;7.15;;;18.10;58.50;;;;;;4983171;28;20053;-69
2021/12/17 12:56:40;;;;;;;13.68;7.13;;;18.10;58.40;;;;;;4967547;28;20030;-70
2021/12/17 12:59:06;;;;;;;16.20;7.45;;;18.10;58.40;;;;;;4985086;28;20397;-70
2021/12/17 13:01:31;;;;;;;12.50;7.18;;;18.10;58.30;;;;;;4965843;28;20031;-70
2021/12/17 13:03:57;;;;;;;14.77;7.70;;;18.10;58.30;;;;;;4988609;28;20544;-71
2021/12/17 13:06:22;;;;;;;10.50;6.43;;;18.10;58.30;;;;;;4971263;28;20042;-71
2021/12/17 13:08:55;;;;;;;14.52;6.95;;;18.10;58.30;;;;;;4988022;28;20429;-70
2021/12/17 13:11:21;;;;;;;11.32;6.88;;;18.10;58.30;;;;;;4989043;28;20030;-69
2021/12/17 13:13:53;;;;;;;12.95;6.40;;;18.10;58.20;;;;;;4969445;28;20054;-73
2021/12/17 13:16:41;;;;;;;11.48;6.85;;;18.10;58.20;;;;;;4986849;28;20054;-71
2021/12/17 13:24:27;;;;;;;12.13;6.22;;;18.10;58.10;;;;;;4988176;28;20026;-71
2021/12/17 13:26:55;;;;;;;9.43;6.10;;;18.10;58.00;;;;;;4969029;28;20035;-70
2021/12/17 13:29:34;;;;;;;9.88;6.30;;;18.10;58.00;;;;;;4989342;28;20061;-71
2021/12/17 13:32:01;;;;;;;11.57;6.28;;;18.10;58.00;;;;;;4985868;28;20027;-70
2021/12/17 13:34:27;;;;;;;10.18;6.30;;;18.10;58.00;;;;;;4981681;28;20131;-70
2021/12/17 13:37:03;;;;;;;10.48;6.35;;;18.10;58.00;;;;;;4988896;28;20034;-71
2021/12/17 13:39:31;;;;;;;9.52;6.10;;;18.10;58.00;;;;;;4985788;28;20034;-71
2021/12/17 13:41:56;;;;;;;9.68;5.68;;;18.10;58.00;;;;;;4983395;28;20038;-70
2021/12/17 13:44:37;;;;;;;8.82;5.75;;;18.10;57.90;;;;;;4987424;28;20049;-70
2021/12/17 13:47:16;;;;;;;7.05;4.88;;;18.10;58.00;;;;;;4967570;28;20126;-70
2021/12/17 13:50:02;;;;;;;10.05;5.35;;;18.10;58.00;;;;;;4980764;28;20030;-70
2021/12/17 13:52:29;;;;;;;8.02;4.93;;;18.10;58.00;;;;;;4987384;28;20027;-70
2021/12/17 13:54:55;;;;;;;6.78;4.43;;;18.10;58.00;;;;;;4990124;28;20092;-70
2021/12/17 13:57:25;;;;;;;9.63;5.53;;;18.10;58.00;;;;;;4973258;28;20034;-70
2021/12/17 13:59:51;;;;;;;8.80;5.28;;;18.20;58.00;;;;;;4990009;28;20052;-71
2021/12/17 14:02:21;;;;;;;8.90;5.28;;;18.20;58.00;;;;;;4989793;28;20038;-71
2021/12/17 14:05:01;;;;;;;6.57;4.47;;;18.10;58.00;;;;;;4986780;28;20039;-71
2021/12/17 14:07:29;;;;;;;7.90;5.22;;;18.10;58.00;;;;;;4987028;28;20049;-71
2021/12/17 14:09:58;;;;;;;6.20;4.55;;;18.10;58.00;;;;;;4987157;28;20035;-72
2021/12/17 14:12:32;;;;;;;8.13;5.05;;;18.10;58.00;;;;;;4970981;28;20625;-71
2021/12/17 14:15:02;;;;;;;6.63;4.75;;;18.20;58.00;;;;;;4987274;28;20516;-70
2021/12/17 14:17:39;;;;;;;6.78;4.40;;;18.10;58.00;;;;;;4971346;28;20049;-71
2021/12/17 14:20:10;;;;;;;7.10;4.57;;;18.20;58.10;;;;;;4987202;28;20026;-71
2021/12/17 14:22:37;;;;;;;5.68;4.15;;;18.20;58.70;;;;;;4983394;28;20027;-70
2021/12/17 14:25:22;;;;;;;7.15;4.93;;;18.10;58.00;;;;;;4970895;28;20026;-72
2021/12/17 14:27:48;;;;;;;7.03;4.63;;;18.20;58.10;;;;;;4987135;28;20046;-70
2021/12/17 14:30:13;;;;;;;9.57;4.80;;;18.10;58.00;;;;;;4987047;28;20034;-70
2021/12/17 14:32:43;;;;;;;6.82;4.28;;;18.20;58.10;;;;;;4969144;28;20047;-72
2021/12/17 14:35:08;;;;;;;7.80;4.60;;;18.20;58.10;;;;;;4986800;28;20569;-70
2021/12/17 14:37:56;;;;;;;6.85;4.78;;;18.10;58.00;;;;;;4967959;28;20041;-70
2021/12/17 14:40:34;;;;;;;5.63;4.07;;;18.20;58.10;;;;;;4978887;28;20035;-70
2021/12/17 14:42:59;;;;;;;7.13;4.80;;;18.20;58.00;;;;;;4987170;28;20478;-70
2021/12/17 14:45:34;;;;;;;5.53;3.83;;;18.20;58.00;;;;;;4985712;28;20031;-70
2021/12/17 14:48:20;;;;;;;5.90;4.00;;;18.20;57.90;;;;;;4982740;28;20030;-70
2021/12/17 15:02:14;;;;;;;6.28;3.88;;;18.10;57.80;;;;;;4971230;28;20032;-70
2021/12/17 15:04:40;;;;;;;7.50;3.90;;;18.20;57.90;;;;;;4968719;28;20074;-71
2021/12/17 15:07:05;;;;;;;4.85;3.55;;;18.10;57.90;;;;;;4985621;28;20453;-69
2021/12/17 15:09:32;;;;;;;6.00;3.83;;;18.10;57.90;;;;;;4967792;28;20758;-70
2021/12/17 15:12:00;;;;;;;4.90;3.50;;;18.20;58.00;;;;;;4984757;28;20533;-72
2021/12/17 15:14:25;;;;;;;4.60;3.60;;;18.10;58.00;;;;;;4986709;28;20022;-69
2021/12/17 15:16:51;;;;;;;4.43;3.25;;;18.10;58.00;;;;;;4968514;28;20061;-71
2021/12/17 15:19:16;;;;;;;6.25;3.90;;;18.20;58.00;;;;;;4985707;28;20430;-71
2021/12/17 15:21:42;;;;;;;7.43;3.80;;;18.10;58.00;;;;;;4986645;28;20037;-71
2021/12/17 15:24:09;;;;;;;5.05;3.70;;;18.20;58.00;;;;;;4985959;28;22118;-70
2021/12/17 15:26:34;;;;;;;5.13;3.75;;;18.10;57.90;;;;;;4986375;28;20508;-71
2021/12/17 15:29:00;;;;;;;6.35;3.90;;;18.20;57.80;;;;;;4976320;28;20033;-70
2021/12/17 15:31:25;;;;;;;5.22;3.53;;;18.20;58.40;;;;;;4984822;28;20037;-70
2021/12/17 15:33:51;;;;;;;4.28;3.63;;;18.10;57.70;;;;;;4966484;28;20034;-71
2021/12/17 15:36:16;;;;;;;5.10;3.65;;;18.20;57.70;;;;;;4969378;28;20039;-70
2021/12/17 15:38:42;;;;;;;5.38;4.05;;;18.10;57.60;;;;;;4984545;28;20076;-71
2021/12/17 15:41:07;;;;;;;5.15;3.78;;;18.10;57.60;;;;;;4973608;28;20172;-70
2021/12/17 15:43:33;;;;;;;4.55;3.60;;;18.20;57.60;;;;;;4984455;28;20088;-71
2021/12/17 15:45:58;;;;;;;4.88;3.33;;;18.10;57.60;;;;;;4985171;28;20371;-71
2021/12/17 15:48:24;;;;;;;5.47;3.65;;;18.20;57.60;;;;;;4984620;28;20083;-70
2021/12/17 15:50:49;;;;;;;4.05;3.47;;;18.20;57.60;;;;;;4987025;28;20089;-71
2021/12/17 15:53:15;;;;;;;5.05;3.90;;;18.20;57.60;;;;;;4960236;23;1080459;-50